sensor_id;sensor_type;location;lat;lon;timestamp;P1;durP1;ratioP1;P2;durP2;ratioP2
44766;SDS011;30487;48.716;9.272;2024-03-23T00:56:12;7.65;;;3.65;;
44766;SDS011;30487;48.716;9.272;2024-03-23T00:58:38;7.07;;;3.15;;
44766;SDS011;30487;48.716;9.272;2024-03-23T01:01:04;10.48;;;3.47;;
44766;SDS011;30487;48.716;9.272;2024-03-23T01:03:30;7.53;;;3.30;;
44766;SDS011;30487;48.716;9.272;2024-03-23T01:05:59;6.55;;;3.13;;
44766;SDS011;30487;48.716;9.272;2024-03-23T01:08:28;8.57;;;3.45;;
44766;SDS011;30487;48.716;9.272;2024-03-23T01:10:57;8.77;;;3.30;;
44766;SDS011;30487;48.716;9.272;2024-03-23T01:13:24;6.68;;;3.60;;
44766;SDS011;30487;48.716;9.272;2024-03-23T01:15:52;7.97;;;3.47;;
44766;SDS011;30487;48.716;9.272;2024-03-23T01:18:19;5.97;;;3.40;;
44766;SDS011;30487;48.716;9.272;2024-03-23T01:20:45;5.07;;;2.60;;
44766;SDS011;30487;48.716;9.272;2024-03-23T01:23:11;10.52;;;2.70;;
44766;SDS011;30487;48.716;9.272;2024-03-23T01:25:37;5.80;;;2.78;;
44766;SDS011;30487;48.716;9.272;2024-03-23T01:28:03;4.43;;;2.50;;
44766;SDS011;30487;48.716;9.272;2024-03-23T01:30:29;6.38;;;2.55;;
44766;SDS011;30487;48.716;9.272;2024-03-23T01:32:55;9.77;;;2.40;;
44766;SDS011;30487;48.716;9.272;2024-03-23T01:35:21;4.32;;;2.17;;
44766;SDS011;30487;48.716;9.272;2024-03-23T01:37:46;4.13;;;1.90;;
44766;SDS011;30487;48.716;9.272;2024-03-23T01:40:12;4.93;;;2.05;;
44766;SDS011;30487;48.716;9.272;2024-03-23T01:42:40;2.58;;;1.55;;
44766;SDS011;30487;48.716;9.272;2024-03-23T01:45:07;4.93;;;1.65;;
44766;SDS011;30487;48.716;9.272;2024-03-23T01:47:33;5.25;;;1.90;;
44766;SDS011;30487;48.716;9.272;2024-03-23T01:49:59;6.20;;;1.88;;
44766;SDS011;30487;48.716;9.272;2024-03-23T01:52:25;4.55;;;1.90;;
44766;SDS011;30487;48.716;9.272;2024-03-23T01:54:55;3.28;;;1.67;;
44766;SDS011;30487;48.716;9.272;2024-03-23T01:57:21;3.20;;;1.60;;
44766;SDS011;30487;48.716;9.272;2024-03-23T01:59:47;5.78;;;1.60;;
44766;SDS011;30487;48.716;9.272;2024-03-23T02:02:13;6.78;;;1.83;;
44766;SDS011;30487;48.716;9.272;2024-03-23T02:04:38;3.95;;;1.70;;
44766;SDS011;30487;48.716;9.272;2024-03-23T02:07:06;3.85;;;1.90;;
44766;SDS011;30487;48.716;9.272;2024-03-23T02:09:32;5.95;;;1.70;;
44766;SDS011;30487;48.716;9.272;2024-03-23T02:11:58;4.85;;;2.08;;
44766;SDS011;30487;48.716;9.272;2024-03-23T02:14:24;3.70;;;1.65;;
44766;SDS011;30487;48.716;9.272;2024-03-23T02:16:49;8.75;;;1.80;;
44766;SDS011;30487;48.716;9.272;2024-03-23T02:19:15;4.32;;;1.83;;
44766;SDS011;30487;48.716;9.272;2024-03-23T02:21:40;3.88;;;1.83;;
44766;SDS011;30487;48.716;9.272;2024-03-23T02:24:06;3.85;;;1.67;;
44766;SDS011;30487;48.716;9.272;2024-03-23T02:26:31;4.50;;;1.90;;
44766;SDS011;30487;48.716;9.272;2024-03-23T02:28:57;3.42;;;1.80;;
44766;SDS011;30487;48.716;9.272;2024-03-23T02:31:22;6.00;;;1.88;;
44766;SDS011;30487;48.716;9.272;2024-03-23T02:33:48;5.25;;;1.90;;
44766;SDS011;30487;48.716;9.272;2024-03-23T02:36:13;3.67;;;1.70;;
44766;SDS011;30487;48.716;9.272;2024-03-23T02:38:39;5.43;;;2.17;;
44766;SDS011;30487;48.716;9.272;2024-03-23T02:41:05;3.15;;;1.60;;
44766;SDS011;30487;48.716;9.272;2024-03-23T02:43:30;3.95;;;1.90;;
44766;SDS011;30487;48.716;9.272;2024-03-23T02:45:56;4.00;;;1.60;;
44766;SDS011;30487;48.716;9.272;2024-03-23T02:48:22;5.55;;;1.55;;
44766;SDS011;30487;48.716;9.272;2024-03-23T02:50:48;2.53;;;1.50;;
44766;SDS011;30487;48.716;9.272;2024-03-23T02:53:14;4.20;;;1.77;;
44766;SDS011;30487;48.716;9.272;2024-03-23T02:55:40;3.00;;;1.60;;
44766;SDS011;30487;48.716;9.272;2024-03-23T02:58:05;5.95;;;1.70;;
44766;SDS011;30487;48.716;9.272;2024-03-23T03:00:31;5.10;;;1.80;;
44766;SDS011;30487;48.716;9.272;2024-03-23T03:02:56;4.53;;;2.00;;
44766;SDS011;30487;48.716;9.272;2024-03-23T03:05:22;3.00;;;1.67;;
44766;SDS011;30487;48.716;9.272;2024-03-23T03:07:47;5.60;;;1.90;;
44766;SDS011;30487;48.716;9.272;2024-03-23T03:10:13;2.67;;;1.42;;
44766;SDS011;30487;48.716;9.272;2024-03-23T03:12:39;3.80;;;1.60;;
44766;SDS011;30487;48.716;9.272;2024-03-23T03:15:05;2.47;;;1.58;;
44766;SDS011;30487;48.716;9.272;2024-03-23T03:17:31;4.35;;;1.60;;
44766;SDS011;30487;48.716;9.272;2024-03-23T03:19:56;4.28;;;1.65;;
44766;SDS011;30487;48.716;9.272;2024-03-23T03:22:22;5.53;;;1.70;;
44766;SDS011;30487;48.716;9.272;2024-03-23T03:24:48;3.35;;;1.60;;
44766;SDS011;30487;48.716;9.272;2024-03-23T03:27:14;3.08;;;1.60;;
44766;SDS011;30487;48.716;9.272;2024-03-23T03:29:39;2.45;;;1.50;;
44766;SDS011;30487;48.716;9.272;2024-03-23T03:32:05;5.18;;;1.50;;
44766;SDS011;30487;48.716;9.272;2024-03-23T03:34:31;5.22;;;2.15;;
44766;SDS011;30487;48.716;9.272;2024-03-23T03:36:57;5.15;;;1.67;;
44766;SDS011;30487;48.716;9.272;2024-03-23T03:39:22;5.38;;;1.70;;
44766;SDS011;30487;48.716;9.272;2024-03-23T03:41:49;3.50;;;1.70;;
44766;SDS011;30487;48.716;9.272;2024-03-23T03:44:15;4.55;;;1.52;;
44766;SDS011;30487;48.716;9.272;2024-03-23T03:46:40;3.83;;;1.73;;
44766;SDS011;30487;48.716;9.272;2024-03-23T03:49:06;2.47;;;1.52;;
44766;SDS011;30487;48.716;9.272;2024-03-23T03:51:31;4.60;;;1.50;;
44766;SDS011;30487;48.716;9.272;2024-03-23T03:53:57;5.15;;;1.67;;
44766;SDS011;30487;48.716;9.272;2024-03-23T03:56:22;4.47;;;1.60;;
44766;SDS011;30487;48.716;9.272;2024-03-23T03:58:48;5.13;;;1.60;;
44766;SDS011;30487;48.716;9.272;2024-03-23T04:01:14;4.38;;;1.42;;
44766;SDS011;30487;48.716;9.272;2024-03-23T04:03:40;3.38;;;1.45;;
44766;SDS011;30487;48.716;9.272;2024-03-23T04:06:08;3.78;;;1.38;;
44766;SDS011;30487;48.716;9.272;2024-03-23T04:08:34;5.25;;;1.67;;
44766;SDS011;30487;48.716;9.272;2024-03-23T04:11:00;3.60;;;1.60;;
44766;SDS011;30487;48.716;9.272;2024-03-23T04:13:25;3.28;;;1.40;;
44766;SDS011;30487;48.716;9.272;2024-03-23T04:15:54;4.53;;;1.45;;
44766;SDS011;30487;48.716;9.272;2024-03-23T04:18:20;3.90;;;1.60;;
44766;SDS011;30487;48.716;9.272;2024-03-23T04:20:46;5.28;;;1.70;;
44766;SDS011;30487;48.716;9.272;2024-03-23T04:23:13;2.90;;;1.42;;
44766;SDS011;30487;48.716;9.272;2024-03-23T04:25:38;4.65;;;1.85;;
44766;SDS011;30487;48.716;9.272;2024-03-23T04:28:04;3.58;;;1.60;;
44766;SDS011;30487;48.716;9.272;2024-03-23T04:30:30;4.03;;;1.67;;
44766;SDS011;30487;48.716;9.272;2024-03-23T04:32:56;3.33;;;1.50;;
44766;SDS011;30487;48.716;9.272;2024-03-23T04:35:23;4.93;;;1.58;;
44766;SDS011;30487;48.716;9.272;2024-03-23T04:37:50;5.25;;;1.77;;
44766;SDS011;30487;48.716;9.272;2024-03-23T04:40:17;7.65;;;1.50;;
44766;SDS011;30487;48.716;9.272;2024-03-23T04:42:43;4.15;;;1.55;;
44766;SDS011;30487;48.716;9.272;2024-03-23T04:45:09;5.55;;;1.83;;
44766;SDS011;30487;48.716;9.272;2024-03-23T04:47:35;4.00;;;1.90;;
44766;SDS011;30487;48.716;9.272;2024-03-23T04:50:02;3.72;;;1.77;;
44766;SDS011;30487;48.716;9.272;2024-03-23T04:52:29;4.60;;;1.60;;
44766;SDS011;30487;48.716;9.272;2024-03-23T04:54:54;4.43;;;1.85;;
44766;SDS011;30487;48.716;9.272;2024-03-23T04:57:20;4.90;;;1.83;;
44766;SDS011;30487;48.716;9.272;2024-03-23T04:59:46;3.65;;;1.80;;
44766;SDS011;30487;48.716;9.272;2024-03-23T05:02:12;5.30;;;2.00;;
44766;SDS011;30487;48.716;9.272;2024-03-23T05:04:38;5.07;;;2.30;;
44766;SDS011;30487;48.716;9.272;2024-03-23T05:07:03;4.25;;;1.90;;
44766;SDS011;30487;48.716;9.272;2024-03-23T05:09:29;4.97;;;2.53;;
44766;SDS011;30487;48.716;9.272;2024-03-23T05:11:56;8.45;;;3.70;;
44766;SDS011;30487;48.716;9.272;2024-03-23T05:14:22;10.02;;;4.57;;
44766;SDS011;30487;48.716;9.272;2024-03-23T05:16:47;8.48;;;4.13;;
44766;SDS011;30487;48.716;9.272;2024-03-23T05:19:13;10.13;;;5.07;;
44766;SDS011;30487;48.716;9.272;2024-03-23T05:21:38;8.77;;;6.07;;
44766;SDS011;30487;48.716;9.272;2024-03-23T05:24:04;11.52;;;6.30;;
44766;SDS011;30487;48.716;9.272;2024-03-23T05:26:30;10.75;;;6.35;;
44766;SDS011;30487;48.716;9.272;2024-03-23T05:28:56;10.63;;;6.65;;
44766;SDS011;30487;48.716;9.272;2024-03-23T05:31:28;12.65;;;7.40;;
44766;SDS011;30487;48.716;9.272;2024-03-23T05:36:21;15.65;;;6.95;;
44766;SDS011;30487;48.716;9.272;2024-03-23T05:38:46;12.38;;;7.45;;
44766;SDS011;30487;48.716;9.272;2024-03-23T05:41:12;14.02;;;7.65;;
44766;SDS011;30487;48.716;9.272;2024-03-23T05:43:38;15.48;;;8.95;;
44766;SDS011;30487;48.716;9.272;2024-03-23T05:46:04;14.43;;;8.43;;
44766;SDS011;30487;48.716;9.272;2024-03-23T05:48:38;13.18;;;8.25;;
44766;SDS011;30487;48.716;9.272;2024-03-23T05:51:04;12.85;;;8.32;;
44766;SDS011;30487;48.716;9.272;2024-03-23T05:53:29;15.57;;;8.38;;
44766;SDS011;30487;48.716;9.272;2024-03-23T05:56:01;16.67;;;8.63;;
44766;SDS011;30487;48.716;9.272;2024-03-23T05:58:31;13.57;;;8.43;;
44766;SDS011;30487;48.716;9.272;2024-03-23T06:00:58;13.95;;;7.15;;
44766;SDS011;30487;48.716;9.272;2024-03-23T06:03:25;12.80;;;7.20;;
44766;SDS011;30487;48.716;9.272;2024-03-23T06:05:51;12.02;;;6.78;;
44766;SDS011;30487;48.716;9.272;2024-03-23T06:08:18;10.73;;;5.57;;
44766;SDS011;30487;48.716;9.272;2024-03-23T06:10:44;8.68;;;4.90;;
44766;SDS011;30487;48.716;9.272;2024-03-23T06:13:10;7.72;;;4.78;;
44766;SDS011;30487;48.716;9.272;2024-03-23T06:15:36;9.60;;;4.90;;
44766;SDS011;30487;48.716;9.272;2024-03-23T06:18:03;5.95;;;4.15;;
44766;SDS011;30487;48.716;9.272;2024-03-23T06:20:29;5.05;;;3.20;;
44766;SDS011;30487;48.716;9.272;2024-03-23T06:22:55;4.90;;;2.90;;
44766;SDS011;30487;48.716;9.272;2024-03-23T06:25:21;3.38;;;2.08;;
44766;SDS011;30487;48.716;9.272;2024-03-23T06:27:46;5.40;;;1.85;;
44766;SDS011;30487;48.716;9.272;2024-03-23T06:30:12;2.97;;;1.65;;
44766;SDS011;30487;48.716;9.272;2024-03-23T06:32:38;2.67;;;1.63;;
44766;SDS011;30487;48.716;9.272;2024-03-23T06:35:03;2.30;;;1.30;;
44766;SDS011;30487;48.716;9.272;2024-03-23T06:37:33;2.95;;;1.20;;
44766;SDS011;30487;48.716;9.272;2024-03-23T06:39:59;1.90;;;1.02;;
44766;SDS011;30487;48.716;9.272;2024-03-23T06:42:24;2.15;;;0.90;;
44766;SDS011;30487;48.716;9.272;2024-03-23T06:44:50;1.77;;;0.75;;
44766;SDS011;30487;48.716;9.272;2024-03-23T06:47:16;1.17;;;0.60;;
44766;SDS011;30487;48.716;9.272;2024-03-23T06:49:42;1.70;;;0.50;;
44766;SDS011;30487;48.716;9.272;2024-03-23T06:52:07;3.28;;;0.47;;
44766;SDS011;30487;48.716;9.272;2024-03-23T06:54:33;1.00;;;0.52;;
44766;SDS011;30487;48.716;9.272;2024-03-23T06:56:58;1.65;;;0.47;;
44766;SDS011;30487;48.716;9.272;2024-03-23T06:59:24;1.00;;;0.50;;
44766;SDS011;30487;48.716;9.272;2024-03-23T07:01:50;1.33;;;0.40;;
44766;SDS011;30487;48.716;9.272;2024-03-23T07:04:15;0.47;;;0.30;;
44766;SDS011;30487;48.716;9.272;2024-03-23T07:06:44;0.90;;;0.40;;
44766;SDS011;30487;48.716;9.272;2024-03-23T07:09:10;0.50;;;0.30;;
44766;SDS011;30487;48.716;9.272;2024-03-23T07:11:36;0.63;;;0.40;;
44766;SDS011;30487;48.716;9.272;2024-03-23T07:14:03;0.98;;;0.47;;
44766;SDS011;30487;48.716;9.272;2024-03-23T07:16:29;0.82;;;0.40;;
44766;SDS011;30487;48.716;9.272;2024-03-23T07:18:55;0.40;;;0.30;;
44766;SDS011;30487;48.716;9.272;2024-03-23T07:21:20;0.63;;;0.38;;
44766;SDS011;30487;48.716;9.272;2024-03-23T07:23:47;0.50;;;0.30;;
44766;SDS011;30487;48.716;9.272;2024-03-23T07:26:13;0.77;;;0.38;;
44766;SDS011;30487;48.716;9.272;2024-03-23T07:28:38;0.30;;;0.30;;
44766;SDS011;30487;48.716;9.272;2024-03-23T07:31:09;0.35;;;0.30;;
44766;SDS011;30487;48.716;9.272;2024-03-23T07:33:36;0.30;;;0.20;;
44766;SDS011;30487;48.716;9.272;2024-03-23T07:36:03;0.88;;;0.30;;
44766;SDS011;30487;48.716;9.272;2024-03-23T07:38:30;0.22;;;0.20;;
44766;SDS011;30487;48.716;9.272;2024-03-23T07:41:15;0.50;;;0.28;;
44766;SDS011;30487;48.716;9.272;2024-03-23T07:43:44;3.63;;;0.30;;
44766;SDS011;30487;48.716;9.272;2024-03-23T07:46:11;0.45;;;0.25;;
44766;SDS011;30487;48.716;9.272;2024-03-23T07:48:37;0.40;;;0.20;;
44766;SDS011;30487;48.716;9.272;2024-03-23T07:53:33;0.30;;;0.30;;
44766;SDS011;30487;48.716;9.272;2024-03-23T07:56:05;2.35;;;0.30;;
44766;SDS011;30487;48.716;9.272;2024-03-23T07:58:32;0.70;;;0.30;;
44766;SDS011;30487;48.716;9.272;2024-03-23T08:01:08;0.40;;;0.30;;
44766;SDS011;30487;48.716;9.272;2024-03-23T08:03:39;0.20;;;0.20;;
44766;SDS011;30487;48.716;9.272;2024-03-23T08:06:14;0.20;;;0.20;;
44766;SDS011;30487;48.716;9.272;2024-03-23T08:08:42;0.80;;;0.30;;
44766;SDS011;30487;48.716;9.272;2024-03-23T08:11:12;0.47;;;0.30;;
44766;SDS011;30487;48.716;9.272;2024-03-23T08:13:38;0.30;;;0.20;;
44766;SDS011;30487;48.716;9.272;2024-03-23T08:16:05;0.93;;;0.20;;
44766;SDS011;30487;48.716;9.272;2024-03-23T08:18:31;0.80;;;0.28;;
44766;SDS011;30487;48.716;9.272;2024-03-23T08:23:26;0.20;;;0.20;;
44766;SDS011;30487;48.716;9.272;2024-03-23T08:26:12;0.30;;;0.20;;
44766;SDS011;30487;48.716;9.272;2024-03-23T08:28:39;0.30;;;0.20;;
44766;SDS011;30487;48.716;9.272;2024-03-23T08:31:06;0.50;;;0.30;;
44766;SDS011;30487;48.716;9.272;2024-03-23T08:33:33;1.08;;;0.40;;
44766;SDS011;30487;48.716;9.272;2024-03-23T08:36:00;1.25;;;0.40;;
44766;SDS011;30487;48.716;9.272;2024-03-23T08:38:30;0.47;;;0.30;;
44766;SDS011;30487;48.716;9.272;2024-03-23T08:41:00;0.60;;;0.40;;
44766;SDS011;30487;48.716;9.272;2024-03-23T08:43:29;1.13;;;0.40;;
44766;SDS011;30487;48.716;9.272;2024-03-23T08:46:12;1.75;;;0.52;;
44766;SDS011;30487;48.716;9.272;2024-03-23T08:48:47;1.83;;;0.50;;
44766;SDS011;30487;48.716;9.272;2024-03-23T08:51:14;3.03;;;0.70;;
44766;SDS011;30487;48.716;9.272;2024-03-23T08:53:41;2.53;;;0.52;;
44766;SDS011;30487;48.716;9.272;2024-03-23T08:56:08;1.63;;;0.60;;
44766;SDS011;30487;48.716;9.272;2024-03-23T08:58:34;2.63;;;0.60;;
44766;SDS011;30487;48.716;9.272;2024-03-23T09:01:04;3.17;;;0.80;;
44766;SDS011;30487;48.716;9.272;2024-03-23T09:03:34;1.90;;;0.70;;
44766;SDS011;30487;48.716;9.272;2024-03-23T09:06:00;2.03;;;0.75;;
44766;SDS011;30487;48.716;9.272;2024-03-23T09:08:27;2.83;;;0.77;;
44766;SDS011;30487;48.716;9.272;2024-03-23T09:10:53;2.42;;;0.90;;
44766;SDS011;30487;48.716;9.272;2024-03-23T09:13:18;1.25;;;0.60;;
44766;SDS011;30487;48.716;9.272;2024-03-23T09:15:50;2.05;;;0.80;;
44766;SDS011;30487;48.716;9.272;2024-03-23T09:18:16;6.45;;;1.08;;
44766;SDS011;30487;48.716;9.272;2024-03-23T09:20:42;2.55;;;0.85;;
44766;SDS011;30487;48.716;9.272;2024-03-23T09:23:08;3.47;;;0.70;;
44766;SDS011;30487;48.716;9.272;2024-03-23T09:25:37;2.55;;;0.80;;
44766;SDS011;30487;48.716;9.272;2024-03-23T09:28:04;4.97;;;0.98;;
44766;SDS011;30487;48.716;9.272;2024-03-23T09:30:35;4.72;;;1.48;;
44766;SDS011;30487;48.716;9.272;2024-03-23T09:33:02;9.00;;;1.50;;
44766;SDS011;30487;48.716;9.272;2024-03-23T09:35:28;5.82;;;1.50;;
44766;SDS011;30487;48.716;9.272;2024-03-23T09:37:53;8.88;;;1.80;;
44766;SDS011;30487;48.716;9.272;2024-03-23T09:40:19;3.92;;;1.42;;
44766;SDS011;30487;48.716;9.272;2024-03-23T09:42:49;5.10;;;1.90;;
44766;SDS011;30487;48.716;9.272;2024-03-23T09:45:26;6.10;;;1.88;;
44766;SDS011;30487;48.716;9.272;2024-03-23T09:47:53;4.32;;;1.60;;
44766;SDS011;30487;48.716;9.272;2024-03-23T09:50:20;7.72;;;1.85;;
44766;SDS011;30487;48.716;9.272;2024-03-23T09:52:46;5.13;;;1.80;;
44766;SDS011;30487;48.716;9.272;2024-03-23T09:55:12;5.10;;;1.70;;
44766;SDS011;30487;48.716;9.272;2024-03-23T09:57:41;5.93;;;2.10;;
44766;SDS011;30487;48.716;9.272;2024-03-23T10:00:07;6.03;;;1.65;;
44766;SDS011;30487;48.716;9.272;2024-03-23T10:02:34;5.22;;;2.10;;
44766;SDS011;30487;48.716;9.272;2024-03-23T10:05:00;4.85;;;1.98;;
44766;SDS011;30487;48.716;9.272;2024-03-23T10:07:25;7.47;;;2.05;;
44766;SDS011;30487;48.716;9.272;2024-03-23T10:09:53;7.75;;;2.28;;
44766;SDS011;30487;48.716;9.272;2024-03-23T10:12:19;7.55;;;2.05;;
44766;SDS011;30487;48.716;9.272;2024-03-23T10:14:45;6.57;;;2.10;;
44766;SDS011;30487;48.716;9.272;2024-03-23T10:17:15;6.15;;;2.08;;
44766;SDS011;30487;48.716;9.272;2024-03-23T10:19:48;6.60;;;2.10;;
44766;SDS011;30487;48.716;9.272;2024-03-23T10:22:17;4.22;;;1.80;;
44766;SDS011;30487;48.716;9.272;2024-03-23T10:24:42;7.47;;;2.38;;
44766;SDS011;30487;48.716;9.272;2024-03-23T10:27:08;9.02;;;1.80;;
44766;SDS011;30487;48.716;9.272;2024-03-23T10:29:34;9.70;;;2.38;;
44766;SDS011;30487;48.716;9.272;2024-03-23T10:32:09;6.88;;;2.25;;
44766;SDS011;30487;48.716;9.272;2024-03-23T10:34:35;6.38;;;1.90;;
44766;SDS011;30487;48.716;9.272;2024-03-23T10:37:02;5.90;;;1.73;;
44766;SDS011;30487;48.716;9.272;2024-03-23T10:39:32;6.82;;;2.30;;
44766;SDS011;30487;48.716;9.272;2024-03-23T10:42:05;7.90;;;1.70;;
44766;SDS011;30487;48.716;9.272;2024-03-23T10:44:39;6.80;;;1.88;;
44766;SDS011;30487;48.716;9.272;2024-03-23T10:47:05;6.35;;;1.85;;
44766;SDS011;30487;48.716;9.272;2024-03-23T10:49:34;5.28;;;1.90;;
44766;SDS011;30487;48.716;9.272;2024-03-23T10:52:01;5.82;;;2.22;;
44766;SDS011;30487;48.716;9.272;2024-03-23T10:54:29;7.03;;;2.05;;
44766;SDS011;30487;48.716;9.272;2024-03-23T10:57:03;7.55;;;2.40;;
44766;SDS011;30487;48.716;9.272;2024-03-23T10:59:38;8.70;;;2.25;;
44766;SDS011;30487;48.716;9.272;2024-03-23T11:02:05;9.27;;;2.50;;
44766;SDS011;30487;48.716;9.272;2024-03-23T11:04:34;7.03;;;2.42;;
44766;SDS011;30487;48.716;9.272;2024-03-23T11:07:05;7.22;;;2.25;;
44766;SDS011;30487;48.716;9.272;2024-03-23T11:09:52;4.55;;;1.60;;
44766;SDS011;30487;48.716;9.272;2024-03-23T11:12:25;5.03;;;1.45;;
44766;SDS011;30487;48.716;9.272;2024-03-23T11:14:55;3.25;;;1.10;;
44766;SDS011;30487;48.716;9.272;2024-03-23T11:17:25;3.70;;;1.23;;
44766;SDS011;30487;48.716;9.272;2024-03-23T11:20:01;4.20;;;1.48;;
44766;SDS011;30487;48.716;9.272;2024-03-23T11:25:17;6.93;;;1.45;;
44766;SDS011;30487;48.716;9.272;2024-03-23T11:27:46;4.60;;;1.65;;
44766;SDS011;30487;48.716;9.272;2024-03-23T11:30:13;2.83;;;1.00;;
44766;SDS011;30487;48.716;9.272;2024-03-23T11:32:40;4.25;;;1.10;;
44766;SDS011;30487;48.716;9.272;2024-03-23T11:35:10;3.72;;;1.40;;
44766;SDS011;30487;48.716;9.272;2024-03-23T11:37:36;5.43;;;1.50;;
44766;SDS011;30487;48.716;9.272;2024-03-23T11:40:16;5.70;;;1.25;;
44766;SDS011;30487;48.716;9.272;2024-03-23T11:42:43;3.28;;;1.05;;
44766;SDS011;30487;48.716;9.272;2024-03-23T11:45:09;3.65;;;1.33;;
44766;SDS011;30487;48.716;9.272;2024-03-23T11:47:35;4.40;;;1.30;;
44766;SDS011;30487;48.716;9.272;2024-03-23T11:50:00;7.43;;;1.30;;
44766;SDS011;30487;48.716;9.272;2024-03-23T11:52:26;5.53;;;1.48;;
44766;SDS011;30487;48.716;9.272;2024-03-23T11:54:51;4.68;;;2.10;;
44766;SDS011;30487;48.716;9.272;2024-03-23T11:57:27;4.72;;;2.17;;
44766;SDS011;30487;48.716;9.272;2024-03-23T11:59:53;3.97;;;1.70;;
44766;SDS011;30487;48.716;9.272;2024-03-23T12:02:18;5.25;;;1.55;;
44766;SDS011;30487;48.716;9.272;2024-03-23T12:04:44;1.92;;;1.17;;
44766;SDS011;30487;48.716;9.272;2024-03-23T12:07:10;5.93;;;1.50;;
44766;SDS011;30487;48.716;9.272;2024-03-23T12:09:47;5.30;;;1.52;;
44766;SDS011;30487;48.716;9.272;2024-03-23T12:12:27;4.22;;;1.17;;
44766;SDS011;30487;48.716;9.272;2024-03-23T12:15:02;3.35;;;1.27;;
44766;SDS011;30487;48.716;9.272;2024-03-23T12:17:30;3.33;;;1.00;;
44766;SDS011;30487;48.716;9.272;2024-03-23T12:19:56;4.40;;;1.10;;
44766;SDS011;30487;48.716;9.272;2024-03-23T12:22:22;5.47;;;1.00;;
44766;SDS011;30487;48.716;9.272;2024-03-23T12:24:48;5.15;;;0.90;;
44766;SDS011;30487;48.716;9.272;2024-03-23T12:27:14;5.28;;;0.98;;
44766;SDS011;30487;48.716;9.272;2024-03-23T12:29:40;5.55;;;1.20;;
44766;SDS011;30487;48.716;9.272;2024-03-23T12:32:10;5.00;;;1.40;;
44766;SDS011;30487;48.716;9.272;2024-03-23T12:34:36;6.07;;;1.17;;
44766;SDS011;30487;48.716;9.272;2024-03-23T12:37:02;6.70;;;1.77;;
44766;SDS011;30487;48.716;9.272;2024-03-23T12:39:28;8.73;;;1.83;;
44766;SDS011;30487;48.716;9.272;2024-03-23T12:41:53;7.75;;;1.60;;
44766;SDS011;30487;48.716;9.272;2024-03-23T12:44:19;5.10;;;1.65;;
44766;SDS011;30487;48.716;9.272;2024-03-23T12:46:45;7.20;;;1.45;;
44766;SDS011;30487;48.716;9.272;2024-03-23T12:49:10;8.15;;;1.48;;
44766;SDS011;30487;48.716;9.272;2024-03-23T12:51:36;6.57;;;1.48;;
44766;SDS011;30487;48.716;9.272;2024-03-23T12:54:02;4.57;;;1.30;;
44766;SDS011;30487;48.716;9.272;2024-03-23T12:56:28;5.97;;;1.50;;
44766;SDS011;30487;48.716;9.272;2024-03-23T12:58:54;7.35;;;1.38;;
44766;SDS011;30487;48.716;9.272;2024-03-23T13:01:22;7.15;;;1.52;;
44766;SDS011;30487;48.716;9.272;2024-03-23T13:03:50;6.85;;;1.48;;
44766;SDS011;30487;48.716;9.272;2024-03-23T13:06:16;10.27;;;1.77;;
44766;SDS011;30487;48.716;9.272;2024-03-23T13:08:46;8.77;;;1.55;;
44766;SDS011;30487;48.716;9.272;2024-03-23T13:11:11;8.13;;;1.50;;
44766;SDS011;30487;48.716;9.272;2024-03-23T13:13:38;7.07;;;1.30;;
44766;SDS011;30487;48.716;9.272;2024-03-23T13:16:04;8.13;;;1.70;;
44766;SDS011;30487;48.716;9.272;2024-03-23T13:18:31;5.15;;;1.70;;
44766;SDS011;30487;48.716;9.272;2024-03-23T13:20:57;5.20;;;1.65;;
44766;SDS011;30487;48.716;9.272;2024-03-23T13:23:23;9.38;;;2.05;;
44766;SDS011;30487;48.716;9.272;2024-03-23T13:25:52;8.13;;;1.83;;
44766;SDS011;30487;48.716;9.272;2024-03-23T13:28:19;4.93;;;1.50;;
44766;SDS011;30487;48.716;9.272;2024-03-23T13:30:55;5.22;;;1.48;;
44766;SDS011;30487;48.716;9.272;2024-03-23T13:33:22;6.72;;;1.38;;
44766;SDS011;30487;48.716;9.272;2024-03-23T13:35:51;5.93;;;1.30;;
44766;SDS011;30487;48.716;9.272;2024-03-23T13:38:17;6.78;;;0.73;;
44766;SDS011;30487;48.716;9.272;2024-03-23T13:41:01;4.28;;;0.93;;
44766;SDS011;30487;48.716;9.272;2024-03-23T13:43:29;2.70;;;0.73;;
44766;SDS011;30487;48.716;9.272;2024-03-23T13:45:56;2.58;;;0.60;;
44766;SDS011;30487;48.716;9.272;2024-03-23T13:48:23;1.90;;;0.50;;
44766;SDS011;30487;48.716;9.272;2024-03-23T13:51:02;2.95;;;0.47;;
44766;SDS011;30487;48.716;9.272;2024-03-23T13:53:28;6.00;;;0.63;;
44766;SDS011;30487;48.716;9.272;2024-03-23T13:55:54;4.05;;;0.80;;
44766;SDS011;30487;48.716;9.272;2024-03-23T13:58:20;3.25;;;0.73;;
44766;SDS011;30487;48.716;9.272;2024-03-23T14:00:46;1.40;;;0.50;;
44766;SDS011;30487;48.716;9.272;2024-03-23T14:03:12;2.53;;;0.80;;
44766;SDS011;30487;48.716;9.272;2024-03-23T14:05:38;4.40;;;0.85;;
44766;SDS011;30487;48.716;9.272;2024-03-23T14:08:05;2.92;;;0.93;;
44766;SDS011;30487;48.716;9.272;2024-03-23T14:10:32;3.33;;;1.15;;
44766;SDS011;30487;48.716;9.272;2024-03-23T14:12:57;5.00;;;1.00;;
44766;SDS011;30487;48.716;9.272;2024-03-23T14:15:25;5.63;;;1.10;;
44766;SDS011;30487;48.716;9.272;2024-03-23T14:17:51;4.32;;;1.00;;
44766;SDS011;30487;48.716;9.272;2024-03-23T14:20:17;4.95;;;1.30;;
44766;SDS011;30487;48.716;9.272;2024-03-23T14:22:42;4.07;;;0.98;;
44766;SDS011;30487;48.716;9.272;2024-03-23T14:25:08;4.13;;;0.88;;
44766;SDS011;30487;48.716;9.272;2024-03-23T14:27:34;5.05;;;0.73;;
44766;SDS011;30487;48.716;9.272;2024-03-23T14:30:02;4.10;;;0.80;;
44766;SDS011;30487;48.716;9.272;2024-03-23T14:32:29;2.40;;;0.73;;
44766;SDS011;30487;48.716;9.272;2024-03-23T14:34:59;1.73;;;0.55;;
44766;SDS011;30487;48.716;9.272;2024-03-23T14:37:27;2.60;;;0.50;;
44766;SDS011;30487;48.716;9.272;2024-03-23T14:39:55;3.60;;;0.68;;
44766;SDS011;30487;48.716;9.272;2024-03-23T14:42:21;1.52;;;0.50;;
44766;SDS011;30487;48.716;9.272;2024-03-23T14:44:47;2.33;;;0.70;;
44766;SDS011;30487;48.716;9.272;2024-03-23T14:47:12;2.22;;;0.50;;
44766;SDS011;30487;48.716;9.272;2024-03-23T14:49:38;3.42;;;0.80;;
44766;SDS011;30487;48.716;9.272;2024-03-23T14:52:03;3.35;;;1.02;;
44766;SDS011;30487;48.716;9.272;2024-03-23T14:54:29;1.52;;;0.60;;
44766;SDS011;30487;48.716;9.272;2024-03-23T14:56:54;1.52;;;0.68;;
44766;SDS011;30487;48.716;9.272;2024-03-23T14:59:23;2.17;;;0.63;;
44766;SDS011;30487;48.716;9.272;2024-03-23T15:01:49;4.65;;;0.90;;
44766;SDS011;30487;48.716;9.272;2024-03-23T15:04:14;2.85;;;0.68;;
44766;SDS011;30487;48.716;9.272;2024-03-23T15:06:40;3.78;;;0.63;;
44766;SDS011;30487;48.716;9.272;2024-03-23T15:09:07;5.00;;;0.82;;
44766;SDS011;30487;48.716;9.272;2024-03-23T15:11:36;3.42;;;0.85;;
44766;SDS011;30487;48.716;9.272;2024-03-23T15:14:02;3.33;;;0.70;;
44766;SDS011;30487;48.716;9.272;2024-03-23T15:16:27;1.90;;;0.70;;
44766;SDS011;30487;48.716;9.272;2024-03-23T15:18:53;2.58;;;0.70;;
44766;SDS011;30487;48.716;9.272;2024-03-23T15:21:19;3.90;;;0.90;;
44766;SDS011;30487;48.716;9.272;2024-03-23T15:23:46;2.60;;;0.60;;
44766;SDS011;30487;48.716;9.272;2024-03-23T15:26:12;2.15;;;0.60;;
44766;SDS011;30487;48.716;9.272;2024-03-23T15:28:38;2.17;;;0.70;;
44766;SDS011;30487;48.716;9.272;2024-03-23T15:31:27;2.20;;;0.68;;
44766;SDS011;30487;48.716;9.272;2024-03-23T15:33:52;2.25;;;0.60;;
44766;SDS011;30487;48.716;9.272;2024-03-23T15:36:18;2.80;;;0.63;;
44766;SDS011;30487;48.716;9.272;2024-03-23T15:38:44;1.52;;;0.57;;
44766;SDS011;30487;48.716;9.272;2024-03-23T15:41:10;3.05;;;0.50;;
44766;SDS011;30487;48.716;9.272;2024-03-23T15:43:35;3.10;;;0.75;;
44766;SDS011;30487;48.716;9.272;2024-03-23T15:46:04;2.30;;;0.63;;
44766;SDS011;30487;48.716;9.272;2024-03-23T15:48:31;2.60;;;0.80;;
44766;SDS011;30487;48.716;9.272;2024-03-23T15:50:58;3.63;;;0.60;;
44766;SDS011;30487;48.716;9.272;2024-03-23T15:53:25;3.65;;;0.80;;